createdAt,value
2022-10-23T00:00:34.634Z,5.300
2022-10-23T00:01:29.550Z,5.650
2022-10-23T00:02:22.294Z,5.500
2022-10-23T00:03:22.923Z,5.600
2022-10-23T00:04:28.283Z,5.700
2022-10-23T00:05:55.621Z,5.000
2022-10-23T00:06:27.536Z,5.250
2022-10-23T00:07:36.145Z,5.600
2022-10-23T00:08:28.132Z,5.300
2022-10-23T00:09:25.654Z,4.950
2022-10-23T00:10:27.548Z,5.200
2022-10-23T00:11:25.969Z,4.900
2022-10-23T00:12:27.085Z,5.550
2022-10-23T00:14:07.086Z,5.800
2022-10-23T00:14:34.583Z,5.450
2022-10-23T00:15:31.841Z,5.100
2022-10-23T00:16:22.008Z,5.100
2022-10-23T00:17:35.300Z,5.500
2022-10-23T00:18:22.183Z,5.400
2022-10-23T00:19:26.345Z,5.400
2022-10-23T00:20:22.007Z,5.500
2022-10-23T00:21:31.184Z,5.350
2022-10-23T00:22:21.128Z,5.100
2022-10-23T00:23:25.344Z,4.800
2022-10-23T00:24:23.293Z,5.300
2022-10-23T00:25:33.406Z,5.000
2022-10-23T00:26:25.188Z,5.000
2022-10-23T00:27:19.978Z,5.100
2022-10-23T00:28:26.554Z,5.100
2022-10-23T00:29:27.528Z,5.000
2022-10-23T00:30:21.919Z,4.900
2022-10-23T00:31:28.317Z,4.900
2022-10-23T00:32:22.824Z,5.000
2022-10-23T00:33:26.313Z,5.200
2022-10-23T00:34:23.203Z,4.600
2022-10-23T00:35:30.321Z,4.900
2022-10-23T00:36:27.694Z,4.850
2022-10-23T00:37:21.893Z,4.600
2022-10-23T00:38:33.628Z,4.600
2022-10-23T00:39:26.850Z,4.600
2022-10-23T00:40:29.165Z,4.500
2022-10-23T00:41:23.038Z,4.600
2022-10-23T00:42:36.789Z,5.000
2022-10-23T00:43:26.252Z,4.800
2022-10-23T00:44:21.901Z,4.500
2022-10-23T00:45:30.057Z,4.700
2022-10-23T00:46:31.661Z,4.500
2022-10-23T00:47:23.930Z,4.700
2022-10-23T00:48:20.370Z,4.800
2022-10-23T00:49:34.447Z,4.750
2022-10-23T00:50:20.456Z,4.550
2022-10-23T00:51:24.907Z,5.000
2022-10-23T00:52:25.585Z,4.600
2022-10-23T00:53:28.291Z,4.800
2022-10-23T00:54:27.169Z,4.800
2022-10-23T00:55:22.375Z,4.900
2022-10-23T00:56:23.078Z,4.700
2022-10-23T00:57:33.603Z,4.800
2022-10-23T00:58:25.331Z,4.500
2022-10-23T00:59:25.131Z,4.600
2022-10-23T01:00:34.064Z,5.050
2022-10-23T01:01:36.556Z,5.000
2022-10-23T01:02:21.591Z,4.700
2022-10-23T01:36:35.837Z,4.800
2022-10-23T01:37:24.929Z,5.300
2022-10-23T01:38:35.187Z,5.100
2022-10-23T01:39:27.233Z,5.050
2022-10-23T01:40:25.130Z,5.100
2022-10-23T01:41:31.323Z,4.900
2022-10-23T01:42:34.303Z,4.900
2022-10-23T02:13:33.169Z,4.350
2022-10-23T02:14:33.198Z,4.350
2022-10-23T02:15:26.410Z,4.400
2022-10-23T02:16:35.655Z,4.500
2022-10-23T02:17:37.713Z,4.300
2022-10-23T02:18:34.769Z,4.500
2022-10-23T02:19:42.320Z,4.400
2022-10-23T02:20:27.934Z,4.250
2022-10-23T02:21:27.329Z,4.400
2022-10-23T02:22:26.895Z,4.250
2022-10-23T02:23:32.496Z,4.200
2022-10-23T02:24:29.579Z,4.350
2022-10-23T02:25:26.786Z,3.800
2022-10-23T02:26:31.113Z,4.350
2022-10-23T02:27:22.213Z,4.350
2022-10-23T02:28:26.034Z,4.300
2022-10-23T02:29:23.510Z,4.250
2022-10-23T02:30:33.566Z,4.350
2022-10-23T02:31:27.940Z,4.350
2022-10-23T02:32:23.997Z,4.300
2022-10-23T02:33:20.793Z,4.300
2022-10-23T02:34:23.625Z,4.550
2022-10-23T02:35:26.138Z,4.200
2022-10-23T02:36:22.102Z,4.100
2022-10-23T02:37:26.855Z,4.700
2022-10-23T02:38:28.821Z,4.550
2022-10-23T02:39:24.737Z,3.900
2022-10-23T02:40:21.772Z,4.350
2022-10-23T02:41:22.103Z,4.350
2022-10-23T02:42:21.156Z,4.400
2022-10-23T02:43:24.799Z,4.200
2022-10-23T02:44:23.547Z,4.300
2022-10-23T02:45:28.228Z,4.200
2022-10-23T02:46:25.987Z,4.150
2022-10-23T02:47:22.304Z,4.200
2022-10-23T02:48:25.063Z,4.100
2022-10-23T02:49:28.002Z,4.150
2022-10-23T02:50:23.728Z,4.100
2022-10-23T02:51:28.127Z,4.400
2022-10-23T02:52:30.120Z,4.150
2022-10-23T02:53:23.841Z,4.200
2022-10-23T02:54:23.412Z,4.200
2022-10-23T02:55:22.123Z,4.050
2022-10-23T02:56:22.188Z,4.300
2022-10-23T02:57:24.377Z,4.200
2022-10-23T02:58:35.666Z,4.500
2022-10-23T02:59:28.297Z,4.200
2022-10-23T03:00:29.170Z,4.450
2022-10-23T03:02:56.821Z,4.200
2022-10-23T03:04:00.212Z,4.200
2022-10-23T03:04:42.705Z,4.400
2022-10-23T03:05:34.011Z,4.450
2022-10-23T03:07:05.178Z,4.500
2022-10-23T03:08:13.353Z,4.400
2022-10-23T03:08:48.569Z,4.300
2022-10-23T03:10:07.385Z,4.300
2022-10-23T03:10:59.668Z,4.200
2022-10-23T03:11:40.894Z,4.100
2022-10-23T03:12:50.109Z,4.400
2022-10-23T03:13:56.323Z,4.150
2022-10-23T03:14:53.106Z,4.400
2022-10-23T03:15:51.890Z,4.200
2022-10-23T03:16:28.864Z,4.200
2022-10-23T03:17:41.681Z,4.000
2022-10-23T03:18:44.574Z,4.350
2022-10-23T03:19:31.695Z,4.300
2022-10-23T03:20:32.437Z,4.250
2022-10-23T03:21:37.187Z,4.400
2022-10-23T03:22:46.226Z,4.250
2022-10-23T03:23:54.827Z,4.200
2022-10-23T03:24:33.648Z,4.000
2022-10-23T03:25:45.452Z,4.150
2022-10-23T03:26:48.639Z,4.250
2022-10-23T03:27:37.138Z,4.350
2022-10-23T03:28:31.575Z,4.400
2022-10-23T03:29:31.590Z,4.250
2022-10-23T03:30:30.049Z,4.700
2022-10-23T03:31:38.907Z,4.200
2022-10-23T03:32:24.031Z,3.900
2022-10-23T03:33:35.561Z,4.100
2022-10-23T03:34:22.769Z,4.250
2022-10-23T03:35:33.007Z,4.100
2022-10-23T03:36:26.556Z,4.100
2022-10-23T03:37:52.011Z,4.100
2022-10-23T03:38:40.611Z,4.300
2022-10-23T03:39:23.558Z,4.500
2022-10-23T03:40:37.385Z,4.250
2022-10-23T03:41:28.183Z,4.500
2022-10-23T03:42:26.972Z,4.200
2022-10-23T03:43:34.174Z,4.000
2022-10-23T03:44:36.239Z,4.350
2022-10-23T03:45:27.223Z,4.150
2022-10-23T03:46:27.291Z,4.100
2022-10-23T03:47:53.463Z,3.950
2022-10-23T03:48:36.944Z,4.000
2022-10-23T03:49:26.121Z,4.100
2022-10-23T03:50:28.314Z,4.250
2022-10-23T03:51:30.111Z,4.100
2022-10-23T03:52:30.895Z,3.900
2022-10-23T03:53:23.746Z,4.100
2022-10-23T03:54:42.692Z,4.150
2022-10-23T03:55:30.888Z,4.300
2022-10-23T03:56:28.409Z,4.100
2022-10-23T03:57:24.945Z,4.300
2022-10-23T03:58:42.094Z,4.300
2022-10-23T03:59:31.163Z,4.250
2022-10-23T04:00:24.149Z,4.150
2022-10-23T04:01:39.864Z,4.300
2022-10-23T04:02:32.415Z,4.400
2022-10-23T04:03:29.621Z,4.300
2022-10-23T04:04:28.087Z,4.150
2022-10-23T04:05:29.385Z,4.250
2022-10-23T04:06:32.314Z,4.300
2022-10-23T04:07:29.753Z,4.200
2022-10-23T04:08:38.098Z,4.600
2022-10-23T04:09:29.735Z,4.250
2022-10-23T04:10:36.220Z,4.100
2022-10-23T04:11:34.371Z,4.100
2022-10-23T04:12:24.196Z,4.300
2022-10-23T04:13:19.827Z,4.200
2022-10-23T04:14:31.619Z,4.150
2022-10-23T04:15:32.929Z,4.300
2022-10-23T04:16:28.254Z,4.250
2022-10-23T04:17:30.805Z,3.900
2022-10-23T04:18:20.395Z,4.200
2022-10-23T04:19:26.013Z,3.950
2022-10-23T04:20:29.128Z,4.150
2022-10-23T04:21:21.820Z,4.550
2022-10-23T04:22:31.987Z,4.050
2022-10-23T04:23:31.954Z,4.800
2022-10-23T04:24:24.479Z,4.200
2022-10-23T04:25:21.760Z,4.200
2022-10-23T04:26:33.942Z,4.300
2022-10-23T04:27:23.125Z,4.000
2022-10-23T04:28:25.564Z,4.150
2022-10-23T04:29:23.333Z,4.350
2022-10-23T04:30:30.243Z,4.200
2022-10-23T04:31:24.032Z,4.150
2022-10-23T04:32:21.924Z,4.200
2022-10-23T04:33:32.339Z,4.100
2022-10-23T04:34:27.455Z,4.500
2022-10-23T04:35:26.126Z,4.350
2022-10-23T04:36:24.234Z,4.050
2022-10-23T04:37:27.944Z,4.300
2022-10-23T04:38:26.192Z,4.500
2022-10-23T04:39:23.875Z,4.400
2022-10-23T04:40:33.753Z,4.300
2022-10-23T04:41:28.069Z,4.400
2022-10-23T04:42:24.342Z,4.000
2022-10-23T04:43:23.736Z,4.150
2022-10-23T04:44:29.648Z,3.950
2022-10-23T04:45:27.736Z,4.300
2022-10-23T04:46:23.136Z,4.500
2022-10-23T04:47:24.430Z,4.050
2022-10-23T04:48:28.474Z,4.200
2022-10-23T04:49:24.235Z,4.150
2022-10-23T04:50:21.459Z,4.300
2022-10-23T04:51:27.979Z,4.400
2022-10-23T04:52:29.863Z,4.150
2022-10-23T04:53:23.393Z,4.250
2022-10-23T04:54:27.523Z,4.000
2022-10-23T04:55:28.569Z,4.300
2022-10-23T04:56:21.959Z,4.300
2022-10-23T04:57:28.240Z,4.150
2022-10-23T04:58:24.777Z,4.400
2022-10-23T04:59:23.993Z,4.450
2022-10-23T05:00:20.237Z,4.300
2022-10-23T05:01:29.800Z,4.500
2022-10-23T05:02:25.780Z,4.250
2022-10-23T05:03:25.729Z,4.150
2022-10-23T05:04:38.668Z,3.800
2022-10-23T05:05:23.584Z,4.400
2022-10-23T05:06:19.572Z,4.200
2022-10-23T05:07:23.050Z,4.200
2022-10-23T05:08:31.007Z,4.150
2022-10-23T05:09:25.861Z,4.300
2022-10-23T05:10:22.020Z,4.250
2022-10-23T05:11:37.931Z,4.400
2022-10-23T05:12:32.287Z,4.250
2022-10-23T05:13:20.433Z,4.500
2022-10-23T05:14:22.821Z,4.300
2022-10-23T05:15:30.273Z,4.300
2022-10-23T05:16:22.290Z,4.350
2022-10-23T05:17:25.094Z,4.300
2022-10-23T05:18:31.885Z,4.500
2022-10-23T05:19:33.836Z,4.300
2022-10-23T05:20:29.212Z,4.250
2022-10-23T05:21:21.761Z,4.500
2022-10-23T05:22:29.955Z,4.300
2022-10-23T05:23:27.333Z,4.400
2022-10-23T05:24:21.996Z,4.400
2022-10-23T05:25:32.734Z,4.500
2022-10-23T05:26:32.609Z,4.500
2022-10-23T05:27:25.448Z,4.400
2022-10-23T05:28:22.484Z,4.800
2022-10-23T05:29:32.964Z,4.200
2022-10-23T05:30:27.058Z,4.300
2022-10-23T05:31:22.610Z,4.200
2022-10-23T05:32:33.908Z,4.500
2022-10-23T05:33:29.169Z,4.600
2022-10-23T05:34:26.072Z,4.500
2022-10-23T05:35:20.748Z,4.400
2022-10-23T05:36:22.955Z,4.500
2022-10-23T05:37:31.733Z,4.550
2022-10-23T05:38:23.710Z,4.550
2022-10-23T05:39:32.152Z,4.400
2022-10-23T05:40:32.636Z,4.550
2022-10-23T05:41:25.629Z,4.400
2022-10-23T05:42:20.429Z,4.300
2022-10-23T05:43:30.790Z,4.400
2022-10-23T05:44:29.697Z,4.950
2022-10-23T05:45:20.170Z,4.400
2022-10-23T05:46:35.245Z,4.650
2022-10-23T05:47:31.553Z,4.700
2022-10-23T05:48:35.064Z,4.800
2022-10-23T05:49:23.390Z,4.700
2022-10-23T05:50:31.505Z,4.550
2022-10-23T05:51:28.497Z,4.600
2022-10-23T05:52:23.303Z,4.800
2022-10-23T05:53:38.880Z,4.900
2022-10-23T05:54:32.306Z,4.900
2022-10-23T05:55:24.139Z,4.800
2022-10-23T05:56:23.913Z,4.800
2022-10-23T05:57:36.388Z,5.000
2022-10-23T05:58:29.705Z,5.200
2022-10-23T05:59:23.739Z,4.850
2022-10-23T06:00:36.329Z,4.950
2022-10-23T06:01:28.813Z,5.050
2022-10-23T06:02:26.918Z,5.500
2022-10-23T06:03:21.380Z,5.050
2022-10-23T06:04:29.991Z,5.300
2022-10-23T06:05:32.157Z,4.900
2022-10-23T06:06:28.149Z,5.400
2022-10-23T06:07:35.097Z,4.900
2022-10-23T06:08:29.167Z,4.750
2022-10-23T06:09:24.208Z,5.000
2022-10-23T06:10:21.209Z,5.400
2022-10-23T06:11:32.019Z,5.300
2022-10-23T06:12:27.298Z,5.100
2022-10-23T06:13:22.171Z,5.300
2022-10-23T06:14:21.075Z,5.150
2022-10-23T06:15:30.774Z,5.200
2022-10-23T06:16:28.125Z,4.800
2022-10-23T06:17:20.311Z,5.200
2022-10-23T06:18:30.290Z,5.300
2022-10-23T06:19:27.608Z,5.150
2022-10-23T06:20:25.344Z,5.150
2022-10-23T06:21:31.370Z,4.900
2022-10-23T06:22:30.231Z,5.150
2022-10-23T06:23:26.244Z,4.900
2022-10-23T06:24:22.256Z,4.900
2022-10-23T06:25:35.899Z,5.100
2022-10-23T06:26:27.972Z,5.300
2022-10-23T06:27:29.224Z,5.000
2022-10-23T06:28:28.605Z,4.950
2022-10-23T06:29:24.303Z,5.200
2022-10-23T06:30:28.411Z,5.050
2022-10-23T06:31:20.008Z,5.250
2022-10-23T06:32:20.269Z,5.400
2022-10-23T06:33:28.690Z,5.200
2022-10-23T06:34:24.835Z,5.100
2022-10-23T06:35:33.487Z,5.050
2022-10-23T06:36:30.384Z,5.350
2022-10-23T06:37:27.736Z,5.050
2022-10-23T06:38:20.128Z,5.300
2022-10-23T06:39:28.470Z,5.300
2022-10-23T06:40:30.280Z,5.050
2022-10-23T06:41:24.577Z,5.500
2022-10-23T06:42:38.806Z,4.750
2022-10-23T06:43:30.621Z,5.700
2022-10-23T06:44:28.444Z,4.950
2022-10-23T06:45:21.760Z,5.300
2022-10-23T06:46:29.249Z,5.600
2022-10-23T06:47:28.583Z,5.100
2022-10-23T06:48:22.269Z,5.300
2022-10-23T06:49:36.781Z,5.100
2022-10-23T06:50:25.589Z,5.150
2022-10-23T06:51:28.829Z,5.250
2022-10-23T06:52:42.079Z,5.500
2022-10-23T06:53:32.614Z,5.600
2022-10-23T06:54:26.178Z,5.100
2022-10-23T06:55:23.111Z,5.300
2022-10-23T06:56:34.555Z,5.300
2022-10-23T06:57:24.551Z,5.400
2022-10-23T06:58:25.720Z,5.700
2022-10-23T06:59:25.339Z,5.400
2022-10-23T07:00:35.702Z,5.300
2022-10-23T07:01:28.544Z,5.200
2022-10-23T07:02:23.235Z,5.650
2022-10-23T07:03:32.031Z,5.200
2022-10-23T07:04:29.600Z,5.750
2022-10-23T07:05:24.364Z,5.700
2022-10-23T07:06:20.430Z,5.500
2022-10-23T07:07:21.448Z,5.450
2022-10-23T07:08:22.551Z,5.700
2022-10-23T07:09:27.418Z,5.900
2022-10-23T07:10:37.026Z,5.500
2022-10-23T07:11:32.478Z,5.800
2022-10-23T07:12:24.175Z,6.050
2022-10-23T07:13:20.175Z,5.700
2022-10-23T07:14:25.532Z,6.000
2022-10-23T07:15:26.012Z,5.750
2022-10-23T07:16:22.300Z,6.050
2022-10-23T07:17:34.211Z,6.100
2022-10-23T07:18:29.149Z,5.900
2022-10-23T07:19:20.453Z,5.700
2022-10-23T07:20:22.986Z,5.800
2022-10-23T07:21:32.749Z,5.850
2022-10-23T07:22:21.833Z,5.800
2022-10-23T07:23:22.182Z,5.850
2022-10-23T07:24:35.746Z,6.650
2022-10-23T07:25:28.831Z,5.900
2022-10-23T07:26:25.195Z,6.500
2022-10-23T07:27:20.146Z,6.550
2022-10-23T07:28:32.528Z,6.100
2022-10-23T07:29:30.264Z,6.200
2022-10-23T07:30:23.815Z,6.600
2022-10-23T07:31:34.390Z,6.350
2022-10-23T07:32:28.456Z,6.200
2022-10-23T07:33:28.472Z,6.500
2022-10-23T07:34:20.034Z,6.200
2022-10-23T07:35:33.104Z,6.650
2022-10-23T07:36:30.960Z,6.500
2022-10-23T07:37:23.185Z,6.200
2022-10-23T07:38:38.358Z,6.500
2022-10-23T07:39:28.385Z,6.500
2022-10-23T07:40:22.122Z,6.500
2022-10-23T07:41:20.666Z,6.450
2022-10-23T07:42:31.173Z,6.500
2022-10-23T07:43:37.525Z,6.750
2022-10-23T07:44:27.778Z,6.600
2022-10-23T07:45:19.453Z,6.300
2022-10-23T07:46:29.968Z,6.400
2022-10-23T07:47:24.858Z,6.100
2022-10-23T07:48:20.337Z,6.250
2022-10-23T07:49:30.168Z,6.500
2022-10-23T07:50:28.529Z,6.200
2022-10-23T07:51:22.472Z,6.500
2022-10-23T07:52:24.865Z,6.300
2022-10-23T07:53:29.874Z,6.450
2022-10-23T07:54:28.602Z,6.100
2022-10-23T07:55:22.559Z,6.400
2022-10-23T07:56:30.273Z,6.500
2022-10-23T07:57:23.828Z,6.150
2022-10-23T07:58:22.230Z,6.450
2022-10-23T07:59:35.852Z,5.950
2022-10-23T08:00:22.295Z,5.600
2022-10-23T08:01:26.337Z,6.550
2022-10-23T08:02:21.240Z,6.200
2022-10-23T08:03:33.014Z,6.050
2022-10-23T08:04:30.440Z,6.100
2022-10-23T08:05:22.480Z,6.000
2022-10-23T08:06:21.664Z,5.750
2022-10-23T08:07:24.474Z,5.900
2022-10-23T08:08:20.685Z,6.200
2022-10-23T08:09:22.714Z,6.050
2022-10-23T08:10:30.072Z,6.150
2022-10-23T08:11:30.946Z,5.800
2022-10-23T08:12:25.581Z,6.000
2022-10-23T08:13:26.268Z,5.900
2022-10-23T08:14:28.117Z,6.100
2022-10-23T08:15:27.102Z,5.700
2022-10-23T08:16:21.240Z,5.600
2022-10-23T08:17:34.274Z,5.900
2022-10-23T08:18:26.705Z,5.750
2022-10-23T08:19:23.164Z,5.600
2022-10-23T08:20:26.177Z,5.900
2022-10-23T08:21:28.252Z,5.950
2022-10-23T08:22:25.792Z,6.100
2022-10-23T08:23:21.582Z,6.400
2022-10-23T08:24:21.701Z,5.800
2022-10-23T08:25:25.074Z,5.800
2022-10-23T08:26:24.860Z,5.800
2022-10-23T08:27:29.276Z,5.700
2022-10-23T08:28:29.405Z,6.350
2022-10-23T08:29:26.548Z,6.400
2022-10-23T08:30:27.757Z,5.700
2022-10-23T08:31:26.751Z,5.000
2022-10-23T08:32:28.032Z,6.300
2022-10-23T08:33:21.898Z,5.600
2022-10-23T08:34:34.411Z,5.800
2022-10-23T08:35:28.505Z,5.900
2022-10-23T08:36:24.070Z,6.350
2022-10-23T08:37:20.085Z,5.200
2022-10-23T08:39:12.501Z,5.800
2022-10-23T08:39:28.143Z,5.350
2022-10-23T08:40:22.326Z,5.700
2022-10-23T08:41:32.573Z,5.800
2022-10-23T08:42:25.232Z,5.800
2022-10-23T08:43:28.878Z,5.600
2022-10-23T08:44:22.261Z,6.150
2022-10-23T08:45:24.518Z,5.700
2022-10-23T08:46:26.509Z,5.500
2022-10-23T08:47:22.537Z,5.300
2022-10-23T08:48:30.076Z,5.500
2022-10-23T08:49:25.545Z,5.450
2022-10-23T08:50:24.821Z,4.800
2022-10-23T08:51:21.527Z,5.100
2022-10-23T08:52:30.441Z,5.600
2022-10-23T08:53:25.572Z,5.600
2022-10-23T08:54:25.242Z,5.200
2022-10-23T08:55:46.150Z,5.300
2022-10-23T08:56:31.492Z,5.400
2022-10-23T08:57:41.263Z,5.300
2022-10-23T08:58:21.296Z,5.600
2022-10-23T08:59:37.550Z,5.550
2022-10-23T09:00:28.924Z,5.350
2022-10-23T09:01:34.472Z,5.300
2022-10-23T09:02:41.221Z,5.400
2022-10-23T09:03:32.272Z,4.800
2022-10-23T09:04:25.772Z,5.300
2022-10-23T09:05:20.587Z,5.300
2022-10-23T09:06:39.131Z,5.500
2022-10-23T09:07:38.067Z,5.000
2022-10-23T09:08:26.568Z,5.000
2022-10-23T09:09:33.493Z,5.200
2022-10-23T09:10:22.621Z,5.200
2022-10-23T09:11:22.692Z,5.200
2022-10-23T09:12:22.417Z,5.100
2022-10-23T09:13:32.660Z,5.000
2022-10-23T09:14:26.915Z,5.250
2022-10-23T09:15:22.513Z,5.000
2022-10-23T09:16:19.901Z,5.050
2022-10-23T09:17:30.185Z,5.050
2022-10-23T09:18:27.833Z,5.200
2022-10-23T09:19:20.862Z,5.100
2022-10-23T09:20:31.271Z,5.400
2022-10-23T09:21:19.510Z,5.400
2022-10-23T09:22:29.540Z,5.350
2022-10-23T09:23:24.131Z,5.100
2022-10-23T09:24:31.502Z,5.200
2022-10-23T09:25:24.617Z,5.150
2022-10-23T09:26:20.478Z,5.100
2022-10-23T09:27:27.587Z,4.950
2022-10-23T09:28:26.159Z,5.600
2022-10-23T09:29:22.384Z,5.100
2022-10-23T09:30:30.641Z,5.250
2022-10-23T09:31:24.636Z,4.900
2022-10-23T09:32:25.352Z,4.700
2022-10-23T09:33:22.608Z,5.450
2022-10-23T09:34:30.098Z,5.050
2022-10-23T09:35:27.185Z,4.900
2022-10-23T09:36:22.244Z,5.400
2022-10-23T09:37:32.655Z,5.050
2022-10-23T09:38:29.406Z,4.800
2022-10-23T09:39:36.232Z,5.000
2022-10-23T09:40:26.387Z,5.150
2022-10-23T09:41:32.326Z,5.200
2022-10-23T09:42:30.550Z,5.000
2022-10-23T09:43:22.764Z,5.300
2022-10-23T09:44:26.852Z,5.150
2022-10-23T09:45:30.730Z,5.200
2022-10-23T09:46:25.877Z,4.900
2022-10-23T09:47:23.543Z,5.300
2022-10-23T09:48:33.977Z,5.150
2022-10-23T09:49:26.559Z,4.650
2022-10-23T09:50:23.960Z,5.100
2022-10-23T09:51:36.922Z,5.200
2022-10-23T09:52:33.684Z,5.200
2022-10-23T09:53:27.753Z,5.200
2022-10-23T09:54:21.829Z,5.200
2022-10-23T09:55:29.058Z,5.200
2022-10-23T09:56:28.434Z,5.150
2022-10-23T09:57:24.326Z,5.500
2022-10-23T09:58:22.155Z,5.300
2022-10-23T09:59:29.810Z,5.150
2022-10-23T10:00:24.510Z,5.300
2022-10-23T10:01:25.138Z,4.850
2022-10-23T10:02:30.740Z,5.400
2022-10-23T10:03:42.907Z,5.000
2022-10-23T10:04:24.194Z,5.250
2022-10-23T10:05:24.544Z,4.900
2022-10-23T10:06:20.588Z,5.100
2022-10-23T10:07:29.360Z,5.350
2022-10-23T10:08:21.268Z,4.500
2022-10-23T10:09:26.267Z,5.200
2022-10-23T10:10:25.965Z,5.150
2022-10-23T10:11:22.384Z,5.600
2022-10-23T10:12:28.587Z,5.400
2022-10-23T10:13:27.923Z,5.050
2022-10-23T10:14:24.192Z,5.200
2022-10-23T10:15:22.725Z,5.750
2022-10-23T10:16:34.181Z,5.400
2022-10-23T10:17:26.350Z,5.750
2022-10-23T10:18:23.423Z,6.200
2022-10-23T10:19:32.318Z,5.650
2022-10-23T10:20:30.167Z,5.450
2022-10-23T10:21:28.322Z,5.350
2022-10-23T10:22:26.240Z,5.700
2022-10-23T10:23:22.947Z,5.300
2022-10-23T10:24:23.461Z,5.300
2022-10-23T10:25:22.862Z,5.350
2022-10-23T10:26:33.109Z,5.700
2022-10-23T10:27:21.635Z,5.950
2022-10-23T10:28:25.724Z,5.800
2022-10-23T10:29:22.499Z,5.400
2022-10-23T10:30:35.546Z,5.800
2022-10-23T10:31:26.245Z,5.500
2022-10-23T10:32:22.460Z,5.600
2022-10-23T10:33:33.209Z,5.700
2022-10-23T10:34:26.472Z,5.350
2022-10-23T10:35:24.597Z,5.550
2022-10-23T10:36:20.418Z,5.500
2022-10-23T10:37:37.641Z,5.400
2022-10-23T10:38:32.676Z,5.700
2022-10-23T10:39:41.571Z,5.800
2022-10-23T10:40:24.215Z,5.700
2022-10-23T10:41:31.948Z,5.300
2022-10-23T10:42:24.405Z,5.850
2022-10-23T10:43:22.168Z,5.500
2022-10-23T10:44:30.598Z,5.600
2022-10-23T10:45:23.769Z,5.700
2022-10-23T10:46:24.564Z,5.500
2022-10-23T10:47:27.261Z,5.650
2022-10-23T10:48:29.653Z,5.750
2022-10-23T10:49:24.883Z,5.700
2022-10-23T10:50:20.363Z,5.650
2022-10-23T10:51:21.530Z,5.700
2022-10-23T10:52:28.089Z,5.600
2022-10-23T10:53:21.957Z,5.800
2022-10-23T10:54:25.076Z,5.750
2022-10-23T10:55:28.552Z,5.800
2022-10-23T10:56:24.162Z,5.350
2022-10-23T10:57:21.979Z,5.900
2022-10-23T10:58:31.837Z,5.900
2022-10-23T10:59:28.387Z,5.800
2022-10-23T11:00:23.683Z,5.450
2022-10-23T11:01:27.678Z,5.350
2022-10-23T11:02:22.020Z,5.750
2022-10-23T11:03:24.003Z,5.900
2022-10-23T11:04:30.185Z,5.750
2022-10-23T11:05:30.576Z,5.900
2022-10-23T11:06:29.755Z,5.600
2022-10-23T11:07:22.482Z,6.200
2022-10-23T11:08:23.502Z,6.000
2022-10-23T11:09:23.720Z,5.850
2022-10-23T11:10:25.840Z,6.050
2022-10-23T11:11:20.387Z,5.700
2022-10-23T11:12:35.906Z,6.050
2022-10-23T11:13:27.550Z,5.500
2022-10-23T11:14:26.497Z,5.750
2022-10-23T11:15:35.903Z,6.050
2022-10-23T11:16:30.536Z,5.600
2022-10-23T11:17:19.909Z,5.850
2022-10-23T11:18:21.039Z,6.100
2022-10-23T11:19:22.714Z,6.000
2022-10-23T11:20:30.093Z,6.000
2022-10-23T11:21:23.642Z,5.800
2022-10-23T11:22:33.620Z,5.750
2022-10-23T11:23:30.336Z,6.100
2022-10-23T11:24:26.537Z,5.650
2022-10-23T11:25:23.119Z,5.700
2022-10-23T11:26:32.053Z,5.600
2022-10-23T11:27:26.678Z,5.500
2022-10-23T11:28:22.384Z,5.600
2022-10-23T11:29:33.490Z,5.650
2022-10-23T11:30:28.652Z,5.800
2022-10-23T11:31:35.523Z,5.750
2022-10-23T11:32:21.533Z,6.000
2022-10-23T11:33:30.802Z,5.550
2022-10-23T11:34:28.768Z,5.950
2022-10-23T11:35:22.636Z,5.850
2022-10-23T11:36:25.043Z,5.600
2022-10-23T11:37:35.765Z,5.650
2022-10-23T11:38:25.095Z,6.000
2022-10-23T11:39:22.518Z,5.700
2022-10-23T11:40:21.887Z,6.050
2022-10-23T11:42:23.448Z,5.550
2022-10-23T11:43:19.482Z,5.750
2022-10-23T11:44:28.814Z,5.800
2022-10-23T11:45:28.642Z,5.550
2022-10-23T11:46:20.412Z,5.600
2022-10-23T11:47:24.947Z,5.550
2022-10-23T11:48:26.336Z,5.650
2022-10-23T11:49:23.657Z,5.500
2022-10-23T11:50:24.636Z,5.800
2022-10-23T11:51:30.127Z,5.750
2022-10-23T11:52:24.284Z,5.400
2022-10-23T11:53:23.042Z,5.500
2022-10-23T11:54:29.721Z,5.900
2022-10-23T11:55:24.410Z,5.950
2022-10-23T11:56:24.162Z,5.900
2022-10-23T11:57:26.768Z,5.950
2022-10-23T11:58:31.093Z,5.700
2022-10-23T11:59:26.902Z,5.600
2022-10-23T12:00:21.835Z,5.750
2022-10-23T12:01:21.718Z,5.800
2022-10-23T12:02:22.792Z,5.700
2022-10-23T12:03:23.277Z,5.800
2022-10-23T12:04:21.521Z,5.800
2022-10-23T12:05:31.389Z,5.750
2022-10-23T12:06:24.607Z,5.750
2022-10-23T12:07:21.671Z,5.900
2022-10-23T12:08:25.108Z,5.550
2022-10-23T12:09:26.969Z,6.100
2022-10-23T12:10:27.908Z,5.800
2022-10-23T12:11:32.347Z,6.050
2022-10-23T12:12:28.550Z,5.500
2022-10-23T12:13:26.914Z,5.550
2022-10-23T12:14:21.442Z,5.600
2022-10-23T12:15:26.847Z,5.600
2022-10-23T12:16:38.243Z,5.600
2022-10-23T12:17:25.891Z,5.900
2022-10-23T12:18:22.924Z,5.900
2022-10-23T12:19:24.202Z,5.700
2022-10-23T12:20:25.882Z,5.700
2022-10-23T12:21:20.113Z,5.650
2022-10-23T12:22:38.270Z,5.700
2022-10-23T12:23:29.181Z,5.800
2022-10-23T12:24:23.447Z,5.850
2022-10-23T12:25:21.831Z,5.800
2022-10-23T12:26:24.418Z,5.950
2022-10-23T12:27:30.182Z,5.700
2022-10-23T12:28:23.265Z,5.850
2022-10-23T12:29:32.453Z,5.900
2022-10-23T12:30:20.818Z,5.950
2022-10-23T12:31:22.901Z,5.800
2022-10-23T12:32:22.001Z,6.150
2022-10-23T12:33:23.085Z,5.750
2022-10-23T12:34:26.997Z,5.500
2022-10-23T12:35:22.457Z,5.850
2022-10-23T12:36:31.371Z,5.900
2022-10-23T12:37:22.593Z,5.800
2022-10-23T12:38:26.880Z,5.500
2022-10-23T12:39:33.208Z,5.900
2022-10-23T12:40:24.708Z,5.900
2022-10-23T12:41:23.491Z,5.800
2022-10-23T12:42:23.950Z,6.000
2022-10-23T12:43:33.248Z,5.700
2022-10-23T12:44:26.335Z,5.800
2022-10-23T12:45:25.550Z,5.600
2022-10-23T12:46:36.378Z,5.650
2022-10-23T12:47:26.136Z,5.200
2022-10-23T12:48:22.976Z,5.700
2022-10-23T12:49:22.025Z,6.200
2022-10-23T12:50:31.711Z,5.950
2022-10-23T12:51:28.352Z,6.400
2022-10-23T12:52:22.271Z,5.700
2022-10-23T12:53:34.142Z,5.600
2022-10-23T12:54:29.305Z,5.900
2022-10-23T12:55:32.245Z,5.650
2022-10-23T12:56:23.765Z,6.200
2022-10-23T12:57:31.443Z,6.050
2022-10-23T12:58:26.986Z,5.850
2022-10-23T12:59:23.295Z,5.900
2022-10-23T13:00:33.669Z,5.950
2022-10-23T13:01:29.754Z,5.600
2022-10-23T13:02:42.959Z,6.000
2022-10-23T13:03:21.995Z,5.700
2022-10-23T13:04:32.763Z,5.800
2022-10-23T13:05:30.145Z,5.500
2022-10-23T13:06:23.828Z,5.750
2022-10-23T13:07:32.473Z,5.800
2022-10-23T13:08:33.261Z,5.700
2022-10-23T13:09:24.081Z,5.400
2022-10-23T13:10:20.380Z,5.550
2022-10-23T13:11:23.024Z,5.950
2022-10-23T13:12:30.507Z,6.100
2022-10-23T13:13:24.560Z,5.900
2022-10-23T13:14:32.763Z,5.800
2022-10-23T13:15:46.827Z,5.700
2022-10-23T13:16:26.973Z,6.300
2022-10-23T13:17:20.802Z,5.700
2022-10-23T13:18:24.774Z,5.800
2022-10-23T13:19:20.830Z,5.950
2022-10-23T13:20:22.400Z,6.000
2022-10-23T13:21:36.788Z,5.950
2022-10-23T13:22:29.325Z,5.900
2022-10-23T13:23:27.828Z,5.750
2022-10-23T13:24:22.302Z,5.900
2022-10-23T13:25:25.452Z,6.000
2022-10-23T13:26:27.883Z,5.850
2022-10-23T13:27:23.656Z,5.800
2022-10-23T13:28:32.423Z,5.650
2022-10-23T13:29:31.095Z,6.300
2022-10-23T13:30:32.250Z,6.400
2022-10-23T13:31:22.546Z,5.950
2022-10-23T13:32:31.672Z,6.100
2022-10-23T13:33:21.314Z,5.700
2022-10-23T13:34:25.077Z,6.000
2022-10-23T13:35:21.938Z,6.150
2022-10-23T13:36:30.191Z,6.200
2022-10-23T13:37:24.676Z,5.800
2022-10-23T13:38:24.938Z,6.200
2022-10-23T13:39:32.467Z,5.650
2022-10-23T13:40:27.939Z,6.100
2022-10-23T13:41:27.695Z,5.950
2022-10-23T13:42:23.302Z,5.950
2022-10-23T13:43:30.270Z,6.400
2022-10-23T13:44:24.369Z,6.050
2022-10-23T13:45:20.433Z,6.400
2022-10-23T13:46:35.205Z,6.550
2022-10-23T13:47:30.616Z,6.300
2022-10-23T13:48:22.068Z,5.800
2022-10-23T13:49:22.344Z,5.950
2022-10-23T13:50:30.214Z,6.100
2022-10-23T13:51:25.151Z,5.950
2022-10-23T13:52:31.729Z,6.000
2022-10-23T13:53:22.351Z,6.150
2022-10-23T13:54:31.666Z,6.200
2022-10-23T13:55:24.240Z,5.950
2022-10-23T13:56:28.461Z,5.950
2022-10-23T13:57:25.347Z,6.100